AirNav   Phillips 66 Aviation Fuel
 
 1463 users online  

MA93 Bay Bank II Heliport
Burlington, Massachusetts, USA

GOING TO BURLINGTON?


FAA INFORMATION EFFECTIVE 20 JULY 2017

Location

FAA Identifier: MA93
Lat/Long: 42-28-52.3410N / 071-12-34.2000W
42-28.872350N / 071-12.570000W
42.4812058 / -71.2095000
(estimated)
Elevation: 148 ft. / 45 m (estimated)
Variation: 16W (1985)
From city: 2 miles SW of BURLINGTON, MA
Time zone: UTC -4 (UTC -5 during Standard Time)
Zip code: 01803

Heliport Operations

Heliport use: Private use. Permission required prior to landing
Activation date: 03/1990
Control tower: no
ARTCC: BOSTON CENTER
FSS: BRIDGEPORT FLIGHT SERVICE STATION
Attendance: UNATNDD
Segmented circle: no

Heliport Communications

WX ASOS at BED (4 nm W): PHONE 781-274-9733
WX ASOS at BOS (11 nm SE): PHONE 617-567-5762
WX ASOS at BVY (14 nm NE): PHONE 978-921-5042
WX ASOS at LWM (15 nm N): 126.75 (978-687-8017)
WX ASOS at OWD (18 nm S): PHONE 781-762-4314

Nearby radio navigation aids

VOR radial/distance  VOR name  Freq  Var
BOSr323/12.2BOSTON VOR/DME112.7016W
LWMr213/16.4LAWRENCE VOR/DME112.5015W
MHTr178/24.3MANCHESTER VOR/DME114.4015W
GDMr110/37.7GARDNER VOR/DME110.6014W
PSMr221/39.8PEASE VOR/DME116.5016W

 
NDB name  Hdg/Dist  Freq  Var  ID
SHAKER HILL334/2.125116WSKR ... -.- .-.
BEDDS105/7.933216WBE -... .
FITCHBURG115/24.636515WFIT ..-. .. -
MARSHFIELD330/33.036816WIMR .. -- .-.
TAUNTON003/37.322716WTAN - .- -.

Heliport Services

Runway Information

Helipad H1

Dimensions: 50 x 50 ft. / 15 x 15 m
Surface: asphalt
Traffic pattern: leftleft

Heliport Ownership and Management from official FAA records

Ownership: Privately-owned
Owner: R. LEMONS,GEN MGR,EQUITY OFC
3 NEW ENGLAND EXECUTIVE PK
BURLINGTON, MA 01803
Phone 617-273-0292
Manager: MINUTE MAN AIRFIELD.

Instrument Procedures

There are no published instrument procedures at MA93.

Some nearby airports with instrument procedures:

KBED - Laurence G Hanscom Field Airport (4 nm W)
KBOS - General Edward Lawrence Logan International Airport (11 nm SE)
6B6 - Minute Man Air Field (14 nm W)
KBVY - Beverly Regional Airport (14 nm NE)
KLWM - Lawrence Municipal Airport (15 nm N)
KOWD - Norwood Memorial Airport (18 nm S)
 
Loc | Ops | Rwys | IFR | FBO | Links
Com | Nav | Svcs | Stats | Notes


 
Area around MA93 (Bay Bank II Heliport)
 
Road maps at: MapQuest Bing Google
 
Aerial photo
No photo
 
Sectional chart

 
Airport distance calculator
Flying to Bay Bank II Heliport? Find the distance to fly.

From to MA93

Sunrise and sunset
Times for 25-Jul-2017
 Local
(UTC-4)
 Zulu
(UTC)
Morning civil twilight04:5808:58
Sunrise05:3109:31
Sunset20:1200:12
Evening civil twilight20:4400:44

Current date and time
Zulu (UTC)  25-Jul-2017 21:28:48
Local (UTC-4)  25-Jul-2017 17:28:48
 
METAR
KBED 
4nm W 
252110Z 04004KT 10SM FEW024 BKN038 OVC100 18/13 A3015 RMK AO2 T01830128
KBOS 
11nm SE 
252054Z 08011KT 10SM FEW027 BKN034 BKN150 18/14 A3016 RMK AO2 SLP212 T01830144 51010
KBVY 
14nm NE 
252053Z 04009KT 10SM FEW027 19/12 A3015 RMK AO2 SLP206 T01940122 51009
KLWM 
15nm N 
252054Z 05009KT 10SM FEW026 SCT032 OVC110 21/13 A3018 RMK AO2 SLP218 T02060128 51006
KMQE 
16nm S 
252056Z AUTO 05006KT 17/14 A3015 RMK AO1 SLP221 T01720139 51009
KOWD 
18nm S 
252109Z 04005KT 10SM FEW026 BKN036 18/14 A3015 RMK AO2 T01830144
TAF
KBED 
4nm W 
251944Z 2520/2618 05004KT P6SM OVC015 FM252100 VRB03KT P6SM FEW015 OVC025 FM260000 00000KT P6SM SCT025 BKN035 FM260200 00000KT P6SM SCT035 FM261500 09004KT P6SM SCT060
KBOS 
11nm SE 
252029Z 2520/2624 09010KT P6SM SCT025 BKN035 FM260100 34003KT P6SM SCT040 FM260400 30004KT P6SM FEW060 FM261400 10006KT P6SM SCT060 FM261700 12010KT P6SM BKN060 FM262300 16006KT P6SM FEW060
NOTAMs
Click for the latest NOTAMs
NOTAMs are issued by the DoD/FAA and will open in a separate window not controlled by AirNav.

 

 
 

Would you like to see your business listed on this page?

 If your business provides an interesting product or service to pilots, flight crews, aircraft, or users of the Bay Bank II Heliport, you should consider listing it here.  To start the listing process, click on the button below
 
Add a business
 

Other Pages about Bay Bank II Heliport

Update a link
 
Copyright © AirNav, LLC. All rights reserved. Privacy Policy  Contact